Time;durP1;ratioP1;P1;durP2;ratioP2;P2;SDS_P1;SDS_P2;PMS_P1;PMS_P2;Temp;Humidity;BMP_temperature;BMP_pressure;BME280_temperature;BME280_humidity;BME280_pressure;Samples;Min_cycle;Max_cycle;Signal;HPM_P1;HPM_P2
2023/09/21 00:04:58;;;;;;;2.20;0.93;;;;;;;17.50;62.20;97122.09;10537348;28;20048;-63
2023/09/21 00:10:19;;;;;;;2.53;0.80;;;;;;;17.46;62.73;97122.69;10538858;28;20115;-63
2023/09/21 00:15:43;;;;;;;2.67;0.88;;;;;;;17.42;62.39;97111.28;10538411;28;20418;-62
2023/09/21 00:21:06;;;;;;;5.90;0.88;;;;;;;17.32;62.81;97114.50;10538068;28;20132;-64
2023/09/21 00:26:27;;;;;;;2.70;0.70;;;;;;;17.19;63.43;97115.53;10542976;28;20094;-64
2023/09/21 00:31:48;;;;;;;2.72;1.00;;;;;;;17.03;63.37;97115.72;10545841;28;20177;-65
2023/09/21 00:37:11;;;;;;;1.75;0.73;;;;;;;16.87;63.60;97115.91;10544848;28;20072;-64
2023/09/21 00:42:33;;;;;;;2.63;0.85;;;;;;;16.77;63.79;97106.38;10544308;28;20048;-64
2023/09/21 00:47:54;;;;;;;2.33;0.70;;;;;;;16.65;63.82;97103.88;10545141;28;20128;-63
2023/09/21 00:53:15;;;;;;;3.33;0.80;;;;;;;16.56;64.23;97096.50;10529726;28;20135;-64
2023/09/21 00:58:47;;;;;;;5.35;1.10;;;;;;;16.54;64.93;97088.72;10543846;28;20474;-63
2023/09/21 01:04:09;;;;;;;2.28;0.90;;;;;;;16.46;64.86;97093.34;10543392;28;20182;-63
2023/09/21 01:09:30;;;;;;;3.95;0.90;;;;;;;16.44;65.23;97079.94;10529289;28;20111;-63
2023/09/21 01:15:04;;;;;;;1.75;0.80;;;;;;;16.40;65.54;97076.97;10543222;28;20335;-63
2023/09/21 01:20:32;;;;;;;2.05;0.85;;;;;;;16.34;65.48;97071.13;10542540;28;20127;-63
2023/09/21 01:25:53;;;;;;;4.75;1.00;;;;;;;16.27;65.66;97075.81;10529110;28;20071;-62
2023/09/21 01:31:14;;;;;;;1.67;0.70;;;;;;;16.22;66.22;97068.63;10542095;28;20114;-63
2023/09/21 01:36:35;;;;;;;2.72;0.80;;;;;;;16.18;65.92;97064.94;10542695;28;20056;-64
2023/09/21 01:41:56;;;;;;;3.15;1.10;;;;;;;16.13;66.45;97060.53;10542985;28;20124;-64
2023/09/21 01:47:18;;;;;;;1.85;0.98;;;;;;;16.07;66.48;97057.50;10541546;28;20059;-65
2023/09/21 01:52:38;;;;;;;3.80;1.05;;;;;;;15.96;66.44;97053.63;10542613;28;20068;-64
2023/09/21 01:57:59;;;;;;;2.80;1.20;;;;;;;15.87;67.02;97049.06;10542194;28;20135;-64
2023/09/21 02:03:27;;;;;;;3.30;1.50;;;;;;;15.87;67.50;97046.25;10540852;28;20075;-65
2023/09/21 02:08:49;;;;;;;5.43;1.58;;;;;;;15.86;67.70;97039.19;10542043;28;20074;-64
2023/09/21 02:14:11;;;;;;;2.38;1.20;;;;;;;15.83;67.47;97034.88;10540783;28;20091;-64
2023/09/21 02:19:37;;;;;;;3.77;1.70;;;;;;;15.80;67.70;97028.44;10526824;28;20534;-64
2023/09/21 02:24:59;;;;;;;3.50;1.40;;;;;;;15.76;67.50;97022.66;10540201;28;20123;-64
2023/09/21 02:30:23;;;;;;;4.57;1.67;;;;;;;15.67;68.00;97009.69;10541009;28;20052;-65
2023/09/21 02:35:46;;;;;;;4.05;1.42;;;;;;;15.63;68.47;97009.50;10526014;28;20547;-63
2023/09/21 02:41:07;;;;;;;3.25;1.60;;;;;;;15.57;68.54;96995.94;10539759;28;20455;-63
2023/09/21 02:46:29;;;;;;;4.65;1.73;;;;;;;15.49;68.49;97006.91;10539973;28;20128;-63
2023/09/21 02:51:52;;;;;;;7.05;1.85;;;;;;;15.42;69.23;97002.41;10539209;28;20067;-63
2023/09/21 02:57:14;;;;;;;3.43;1.80;;;;;;;15.39;69.32;96998.09;10539169;28;20135;-63
2023/09/21 03:02:35;;;;;;;3.17;1.92;;;;;;;15.33;69.41;96997.84;10539010;28;20127;-63
2023/09/21 03:07:56;;;;;;;4.03;1.40;;;;;;;15.33;69.72;96992.22;10539822;28;20044;-63
2023/09/21 03:13:18;;;;;;;4.40;1.63;;;;;;;15.30;69.76;96993.53;10541291;28;20123;-63
2023/09/21 03:18:41;;;;;;;5.22;1.52;;;;;;;15.15;70.34;96986.66;10538606;28;20075;-63
2023/09/21 03:24:04;;;;;;;3.10;1.90;;;;;;;15.12;70.12;96977.41;10524571;28;20128;-63
2023/09/21 03:29:25;;;;;;;4.18;1.80;;;;;;;15.16;70.70;96974.78;10539314;28;20533;-63
2023/09/21 03:34:46;;;;;;;4.05;2.20;;;;;;;15.11;70.63;96969.63;10538355;28;20072;-63
2023/09/21 03:40:09;;;;;;;4.43;2.05;;;;;;;15.14;71.21;96974.69;10538051;28;20039;-63
2023/09/21 03:45:31;;;;;;;5.32;1.95;;;;;;;15.17;71.67;96973.41;10538242;28;20070;-63
2023/09/21 03:50:52;;;;;;;3.88;2.05;;;;;;;15.26;71.52;96970.91;10539047;28;20064;-64
2023/09/21 03:56:13;;;;;;;5.55;2.13;;;;;;;15.29;71.82;96963.97;10538388;28;20154;-63
2023/09/21 04:01:34;;;;;;;3.83;2.08;;;;;;;15.31;71.94;96964.03;10547435;28;20071;-63
2023/09/21 04:06:56;;;;;;;4.65;1.88;;;;;;;15.37;72.32;96962.19;10548918;28;20078;-64
2023/09/21 04:12:17;;;;;;;6.38;2.22;;;;;;;15.38;72.13;96958.00;10546536;28;20055;-63
2023/09/21 04:17:41;;;;;;;5.25;2.17;;;;;;;15.34;72.46;96960.66;10545283;28;20123;-63
2023/09/21 04:23:03;;;;;;;3.55;1.85;;;;;;;15.36;73.36;96949.50;10531171;28;20056;-64
2023/09/21 04:28:24;;;;;;;4.53;1.55;;;;;;;15.44;73.32;96938.53;10544937;28;20549;-63
2023/09/21 04:33:46;;;;;;;3.80;1.95;;;;;;;15.50;74.18;96923.97;10544802;28;20064;-63
2023/09/21 04:39:08;;;;;;;4.32;1.98;;;;;;;15.49;73.22;96933.78;10545554;28;20078;-63
2023/09/21 04:44:30;;;;;;;7.55;2.20;;;;;;;15.45;73.39;96922.38;10543975;28;20464;-63
2023/09/21 04:49:54;;;;;;;4.28;2.50;;;;;;;15.44;73.71;96915.31;10544225;28;20091;-63
2023/09/21 04:55:16;;;;;;;7.45;2.30;;;;;;;15.50;73.26;96920.44;10543897;28;20078;-63
2023/09/21 05:00:38;;;;;;;8.07;2.38;;;;;;;15.73;74.04;96917.78;10543574;28;20071;-63
2023/09/21 05:05:59;;;;;;;7.40;2.63;;;;;;;16.18;73.78;96933.31;10543318;28;20542;-63
2023/09/21 05:11:21;;;;;;;4.88;2.78;;;;;;;16.75;73.42;96937.97;10542454;28;20120;-63
2023/09/21 05:16:43;;;;;;;5.35;2.35;;;;;;;17.40;72.53;96927.88;10543066;28;20454;-63
2023/09/21 05:22:04;;;;;;;5.13;2.50;;;;;;;18.08;71.38;96927.56;10542468;28;20498;-63
2023/09/21 05:27:29;;;;;;;7.95;2.72;;;;;;;22.11;65.57;96928.97;10543728;28;20068;-63
2023/09/21 05:32:50;;;;;;;5.30;2.53;;;;;;;20.46;62.60;96918.34;10543294;28;20075;-64
2023/09/21 05:38:11;;;;;;;7.18;2.58;;;;;;;20.20;64.99;96925.00;10543343;28;20476;-63
2023/09/21 05:43:32;;;;;;;5.55;2.67;;;;;;;24.16;61.44;96923.69;10543076;28;20075;-64
2023/09/21 05:48:53;;;;;;;7.53;2.80;;;;;;;28.32;55.96;96938.78;10541087;28;20162;-64
2023/09/21 05:54:16;;;;;;;5.20;2.20;;;;;;;33.57;44.62;96939.78;10542220;28;20044;-65
2023/09/21 05:59:38;;;;;;;5.72;2.13;;;;;;;37.03;36.35;96936.44;10542028;28;20071;-65
2023/09/21 06:04:59;;;;;;;5.93;2.25;;;;;;;39.13;31.97;96933.72;10541911;28;20068;-67
2023/09/21 06:10:20;;;;;;;5.80;2.03;;;;;;;42.12;24.43;96922.91;10541715;28;20064;-67
2023/09/21 06:15:47;;;;;;;5.22;1.95;;;;;;;38.98;23.31;96924.38;10541727;28;20072;-67
2023/09/21 06:21:09;;;;;;;4.38;1.85;;;;;;;37.22;25.36;96925.25;10540792;28;20068;-66
2023/09/21 06:26:30;;;;;;;3.22;1.70;;;;;;;42.74;21.12;96919.81;10541150;28;20158;-67
2023/09/21 06:31:54;;;;;;;10.45;2.47;;;;;;;46.21;16.12;96904.66;10541114;28;20075;-67
2023/09/21 06:37:33;;;;;;;5.53;2.03;;;;;;;42.58;16.72;96909.31;10540777;28;20086;-67
2023/09/21 06:42:55;;;;;;;9.65;2.88;;;;;;;45.69;14.54;96915.91;10539490;28;20108;-66
2023/09/21 06:48:16;;;;;;;6.53;2.17;;;;;;;47.25;13.82;96903.31;10540263;28;20078;-67
2023/09/21 06:53:37;;;;;;;5.32;2.35;;;;;;;48.51;12.23;96899.34;10540132;28;20425;-67
2023/09/21 06:58:58;;;;;;;10.75;2.58;;;;;;;48.87;11.99;96892.03;10540072;28;20130;-67
2023/09/21 07:04:20;;;;;;;7.85;2.50;;;;;;;49.28;10.79;96885.59;10539805;28;20044;-67
2023/09/21 07:09:44;;;;;;;4.75;2.08;;;;;;;50.95;11.09;96882.69;10539654;28;20117;-68
2023/09/21 07:15:07;;;;;;;6.72;2.60;;;;;;;52.02;9.63;96875.16;10538405;28;20067;-68
2023/09/21 07:20:28;;;;;;;6.43;2.45;;;;;;;52.47;8.75;96878.94;10539330;28;20169;-68
2023/09/21 07:25:49;;;;;;;7.53;2.35;;;;;;;52.68;8.75;96883.88;10539379;28;20131;-67
2023/09/21 07:31:10;;;;;;;6.47;2.25;;;;;;;53.18;9.08;96886.16;10539188;28;20452;-68
2023/09/21 07:36:34;;;;;;;10.60;3.00;;;;;;;51.36;9.17;96896.72;10538982;28;20044;-68
2023/09/21 07:41:55;;;;;;;6.03;2.80;;;;;;;50.03;9.87;96889.63;10538735;28;20068;-68
2023/09/21 07:47:17;;;;;;;7.55;2.78;;;;;;;47.25;11.46;96885.59;10538738;28;20059;-67
2023/09/21 07:52:39;;;;;;;4.45;2.88;;;;;;;45.76;12.49;96875.50;10538916;28;20135;-67
2023/09/21 07:57:59;;;;;;;8.18;3.10;;;;;;;47.96;12.38;96872.88;10538693;28;20454;-68
2023/09/21 08:03:21;;;;;;;7.82;3.45;;;;;;;45.89;12.71;96866.97;10538672;28;20513;-68
2023/09/21 08:08:43;;;;;;;6.50;3.28;;;;;;;41.13;15.36;96857.38;10538402;28;20068;-67
2023/09/21 08:14:04;;;;;;;5.60;3.40;;;;;;;43.24;15.59;96858.81;10538648;28;20166;-66
2023/09/21 08:19:25;;;;;;;5.25;2.70;;;;;;;45.74;13.35;96857.31;10538184;28;20458;-67
2023/09/21 08:24:46;;;;;;;7.00;2.70;;;;;;;47.37;12.76;96860.13;10538130;28;20578;-68
2023/09/21 08:30:08;;;;;;;4.10;2.75;;;;;;;45.36;13.16;96859.81;10538085;28;20048;-68
2023/09/21 08:35:31;;;;;;;7.80;4.90;;;;;;;35.13;22.45;96851.75;10537868;28;20131;-67
2023/09/21 08:40:52;;;;;;;9.77;4.57;;;;;;;30.34;27.34;96850.03;10537911;28;20068;-67
2023/09/21 08:46:13;;;;;;;7.30;5.30;;;;;;;28.20;31.67;96856.47;10540536;28;20542;-64
2023/09/21 08:51:37;;;;;;;8.50;5.60;;;;;;;26.89;37.25;96857.44;10543923;28;20048;-64
2023/09/21 08:56:58;;;;;;;9.65;5.35;;;;;;;27.47;37.46;96858.22;10544816;28;20083;-65
2023/09/21 09:02:19;;;;;;;11.33;6.50;;;;;;;27.99;36.93;96855.34;10543654;28;20040;-65
2023/09/21 09:07:41;;;;;;;9.73;5.53;;;;;;;31.25;33.97;96846.19;10529210;28;20055;-65
2023/09/21 09:13:08;;;;;;;9.70;5.05;;;;;;;36.51;26.72;96841.66;10544017;28;20081;-68
2023/09/21 09:18:29;;;;;;;10.68;5.28;;;;;;;33.11;27.28;96859.03;10543889;28;20105;-67
2023/09/21 09:23:49;;;;;;;;;;;;;;;31.38;30.59;96841.50;10544369;28;20076;-65
2023/09/21 09:29:13;;;;;;;11.32;5.00;;;;;;;28.79;34.46;96833.19;10543448;28;20043;-64
2023/09/21 09:34:34;;;;;;;9.68;5.20;;;;;;;27.28;37.10;96834.09;10543145;28;20071;-64
2023/09/21 09:39:56;;;;;;;10.27;5.78;;;;;;;26.39;40.27;96833.63;10543261;28;20111;-64
2023/09/21 09:45:18;;;;;;;11.80;6.43;;;;;;;24.92;43.77;96835.91;10542059;28;20128;-64
2023/09/21 09:50:41;;;;;;;9.65;5.80;;;;;;;24.16;45.45;96833.16;10542461;28;20170;-64
2023/09/21 09:56:09;;;;;;;;;;;;;;;24.01;46.79;96828.88;10528011;28;20076;-64
2023/09/21 10:01:33;;;;;;;8.15;5.20;;;;;;;24.85;45.79;96823.81;10541158;28;19943;-64
2023/09/21 10:06:54;;;;;;;12.23;5.47;;;;;;;24.50;46.49;96821.03;10540931;28;20073;-64
2023/09/21 10:12:14;;;;;;;10.10;5.65;;;;;;;23.99;47.92;96814.63;10540848;28;20044;-64
2023/09/21 10:17:36;;;;;;;9.50;5.47;;;;;;;24.81;48.45;96801.00;10540424;28;20144;-64
2023/09/21 10:22:58;;;;;;;8.50;4.13;;;;;;;25.61;45.47;96804.19;10541265;28;20444;-63
2023/09/21 10:28:28;;;;;;;7.97;4.93;;;;;;;27.61;43.66;96791.41;10526122;28;20166;-64
2023/09/21 10:33:56;;;;;;;9.50;4.85;;;;;;;27.48;40.31;96785.13;10540783;28;20072;-64
2023/09/21 10:39:30;;;;;;;8.27;4.88;;;;;;;26.92;41.69;96787.25;10540654;28;20102;-64
2023/09/21 10:45:07;;;;;;;7.88;4.80;;;;;;;32.99;36.21;96772.75;10540320;28;20040;-67
2023/09/21 10:50:30;;;;;;;7.47;4.10;;;;;;;35.74;29.19;96767.00;10540163;28;20048;-67
2023/09/21 10:55:52;;;;;;;6.45;3.95;;;;;;;36.75;27.21;96763.41;10539062;28;20097;-66
2023/09/21 11:01:12;;;;;;;7.25;3.75;;;;;;;38.42;23.34;96749.06;10540070;28;20044;-67
2023/09/21 11:06:33;;;;;;;6.18;2.90;;;;;;;40.71;21.42;96744.66;10539557;28;20047;-67
2023/09/21 11:11:54;;;;;;;6.90;3.20;;;;;;;37.44;21.65;96736.47;10524014;28;20071;-66
2023/09/21 11:17:18;;;;;;;6.60;3.58;;;;;;;32.45;27.40;96733.50;10539455;28;20064;-67
2023/09/21 11:22:43;;;;;;;6.13;3.50;;;;;;;31.32;30.04;96732.13;10538819;28;20051;-64
2023/09/21 11:28:03;;;;;;;6.43;3.35;;;;;;;31.28;30.28;96723.63;10538952;28;20059;-64
2023/09/21 11:33:25;;;;;;;6.97;4.15;;;;;;;30.67;33.82;96703.03;10538617;28;20056;-64
2023/09/21 11:38:46;;;;;;;6.45;3.80;;;;;;;32.06;30.42;96698.75;10538208;28;20473;-64
2023/09/21 11:44:07;;;;;;;7.13;3.88;;;;;;;33.14;28.16;96684.03;10538791;28;20052;-66
2023/09/21 11:49:38;;;;;;;6.70;3.88;;;;;;;31.48;31.13;96679.72;10538585;28;20055;-64
2023/09/21 11:54:59;;;;;;;6.68;3.90;;;;;;;31.15;31.40;96687.94;10538665;28;20047;-64
2023/09/21 12:00:27;;;;;;;;;;;;;;;29.27;34.56;96667.06;10538591;28;20457;-64
2023/09/21 12:05:49;;;;;;;6.20;3.10;;;;;;;28.54;36.25;96650.69;10537740;28;20357;-64
2023/09/21 12:11:11;;;;;;;7.43;3.25;;;;;;;28.22;37.49;96639.09;10537479;28;20087;-64
2023/09/21 12:16:33;;;;;;;5.40;3.53;;;;;;;27.92;37.23;96646.13;10538000;28;20059;-64
2023/09/21 12:21:56;;;;;;;8.20;3.00;;;;;;;28.35;37.34;96636.00;10542295;28;20067;-63
2023/09/21 12:27:17;;;;;;;7.47;2.95;;;;;;;27.76;37.86;96626.34;10545598;28;20513;-64
2023/09/21 12:32:41;;;;;;;7.17;3.70;;;;;;;27.28;39.04;96610.66;10545639;28;20067;-63
2023/09/21 12:38:02;;;;;;;6.22;3.60;;;;;;;27.37;38.99;96604.06;10545667;28;20078;-64
2023/09/21 12:43:23;;;;;;;10.43;3.33;;;;;;;27.32;39.70;96597.00;10544216;28;20402;-64
2023/09/21 12:48:44;;;;;;;5.68;3.05;;;;;;;26.97;40.01;96599.66;10545049;28;20083;-64
2023/09/21 12:54:07;;;;;;;6.57;3.42;;;;;;;25.87;42.22;96606.81;10544629;28;20044;-63
2023/09/21 12:59:28;;;;;;;8.10;2.97;;;;;;;25.87;42.69;96603.25;10544596;28;20398;-63
2023/09/21 13:04:49;;;;;;;10.15;3.17;;;;;;;25.45;43.04;96587.19;10544212;28;20075;-63
2023/09/21 13:10:11;;;;;;;8.65;3.20;;;;;;;25.64;43.28;96582.72;10544263;28;20114;-63
2023/09/21 13:15:32;;;;;;;5.47;3.20;;;;;;;25.15;44.52;96566.03;10544343;28;20142;-63
2023/09/21 13:20:53;;;;;;;9.00;3.58;;;;;;;25.05;44.86;96566.81;10543794;28;20375;-64
2023/09/21 13:26:14;;;;;;;5.80;2.95;;;;;;;25.14;45.03;96558.91;10542640;28;20047;-63
2023/09/21 13:31:36;;;;;;;5.93;3.33;;;;;;;25.29;44.92;96557.34;10542898;28;20040;-62
2023/09/21 13:36:57;;;;;;;7.22;3.20;;;;;;;25.14;45.12;96566.75;10528442;28;20134;-63
2023/09/21 13:42:18;;;;;;;5.90;3.25;;;;;;;25.02;45.58;96550.44;10543122;28;20072;-63
2023/09/21 13:47:40;;;;;;;5.97;3.22;;;;;;;24.75;46.16;96547.75;10541827;28;20122;-63
2023/09/21 13:53:02;;;;;;;5.03;3.30;;;;;;;24.85;46.52;96546.97;10542383;28;20044;-63
2023/09/21 13:58:23;;;;;;;5.90;3.10;;;;;;;24.87;46.52;96535.53;10527459;28;20109;-63
2023/09/21 14:03:43;;;;;;;6.13;3.17;;;;;;;24.76;46.47;96525.66;10542099;28;20405;-64
2023/09/21 14:09:04;;;;;;;6.90;3.08;;;;;;;24.67;46.62;96513.59;10526727;28;20505;-63
2023/09/21 14:14:25;;;;;;;8.50;3.30;;;;;;;24.66;47.10;96506.47;10540728;28;20055;-63
2023/09/21 14:19:46;;;;;;;7.93;3.47;;;;;;;24.60;46.86;96509.34;10540836;28;20464;-63
2023/09/21 14:25:08;;;;;;;7.05;3.45;;;;;;;24.37;47.42;96510.94;10541472;28;20044;-63
2023/09/21 14:30:29;;;;;;;6.07;3.10;;;;;;;24.44;47.40;96498.06;10540324;28;20517;-63
2023/09/21 14:35:50;;;;;;;5.60;3.20;;;;;;;24.54;47.39;96489.44;10539740;28;20391;-63
2023/09/21 14:41:12;;;;;;;5.68;3.38;;;;;;;24.40;47.22;96486.69;10540556;28;20131;-63
2023/09/21 14:46:33;;;;;;;6.50;2.85;;;;;;;24.27;47.66;96480.31;10538815;28;20063;-63
2023/09/21 14:51:54;;;;;;;6.32;3.00;;;;;;;24.19;48.37;96475.38;10525152;28;20044;-63
2023/09/21 14:57:15;;;;;;;7.57;3.33;;;;;;;24.15;48.58;96466.88;10539242;28;20051;-63
2023/09/21 15:02:37;;;;;;;7.70;3.30;;;;;;;24.05;48.44;96478.31;10540632;28;20055;-63
2023/09/21 15:07:58;;;;;;;6.40;2.72;;;;;;;24.03;48.70;96463.34;10540057;28;20434;-63
2023/09/21 15:13:33;;;;;;;7.53;3.33;;;;;;;23.92;49.21;96454.16;10539510;28;20044;-63
2023/09/21 15:18:54;;;;;;;6.35;2.63;;;;;;;23.95;49.19;96464.13;10539430;28;20044;-63
2023/09/21 15:24:15;;;;;;;5.65;2.97;;;;;;;23.92;49.31;96459.84;10538230;28;20052;-63
2023/09/21 15:29:35;;;;;;;8.80;2.83;;;;;;;23.80;49.64;96463.47;10538184;28;20059;-63
2023/09/21 15:34:57;;;;;;;9.38;2.85;;;;;;;23.72;49.55;96454.25;10538856;28;20115;-63
2023/09/21 15:40:18;;;;;;;4.68;2.50;;;;;;;23.62;49.45;96435.78;10538748;28;20083;-63
2023/09/21 15:45:39;;;;;;;5.72;2.40;;;;;;;23.54;49.78;96435.78;10523834;28;20044;-64
2023/09/21 15:51:00;;;;;;;4.18;2.22;;;;;;;23.55;49.32;96434.38;10538546;28;20509;-63
2023/09/21 15:56:22;;;;;;;7.10;3.13;;;;;;;23.46;49.83;96423.75;10543968;28;20174;-63
2023/09/21 16:01:43;;;;;;;6.55;2.80;;;;;;;23.41;49.50;96423.03;10547079;28;20052;-63
2023/09/21 16:07:04;;;;;;;2.97;2.10;;;;;;;23.27;49.93;96420.25;10546744;28;20409;-63
2023/09/21 16:12:27;;;;;;;8.23;2.80;;;;;;;23.18;50.15;96421.69;10546635;28;20044;-63
2023/09/21 16:17:48;;;;;;;6.43;2.63;;;;;;;23.03;50.54;96416.03;10531763;28;20090;-63
2023/09/21 16:23:09;;;;;;;6.40;2.30;;;;;;;22.95;51.06;96412.50;10546227;28;20082;-63
2023/09/21 16:28:31;;;;;;;6.20;2.63;;;;;;;22.80;50.87;96412.50;10545299;28;20050;-63
2023/09/21 16:33:52;;;;;;;6.45;2.17;;;;;;;22.69;51.09;96404.72;10531106;28;20426;-64
2023/09/21 16:39:13;;;;;;;4.03;2.08;;;;;;;22.57;51.19;96399.72;10545694;28;20048;-63
2023/09/21 16:44:34;;;;;;;6.88;2.40;;;;;;;22.44;51.49;96390.50;10545748;28;20075;-62
2023/09/21 16:49:54;;;;;;;5.75;2.50;;;;;;;22.36;51.83;96384.81;10544259;28;20063;-63
2023/09/21 16:55:15;;;;;;;4.70;2.47;;;;;;;22.27;51.89;96377.69;10545196;28;20048;-63
2023/09/21 17:00:36;;;;;;;4.18;2.15;;;;;;;22.12;52.03;96377.00;10544873;28;20093;-63
2023/09/21 17:05:57;;;;;;;7.03;2.53;;;;;;;21.99;52.35;96372.69;10528743;28;20083;-63
2023/09/21 17:11:17;;;;;;;8.50;2.67;;;;;;;21.88;52.51;96380.50;10544681;28;20051;-63
2023/09/21 17:16:38;;;;;;;8.15;2.40;;;;;;;21.77;52.75;96375.50;10544158;28;20177;-63
2023/09/21 17:21:59;;;;;;;5.97;2.70;;;;;;;21.65;53.04;96370.50;10543808;28;20048;-63
2023/09/21 17:27:20;;;;;;;5.80;2.95;;;;;;;21.54;53.41;96366.22;10543714;28;20075;-63
2023/09/21 17:32:41;;;;;;;5.82;3.08;;;;;;;21.42;53.49;96361.94;10543775;28;20077;-63
2023/09/21 17:38:02;;;;;;;8.65;2.83;;;;;;;21.30;54.04;96364.72;10542693;28;20056;-63
2023/09/21 17:43:23;;;;;;;7.93;3.60;;;;;;;21.17;54.32;96371.75;10543372;28;20044;-63
2023/09/21 17:48:46;;;;;;;8.18;2.97;;;;;;;21.07;54.47;96368.88;10543099;28;20064;-63
2023/09/21 17:54:07;;;;;;;;;;;;;;;21.02;55.45;96373.09;10543284;28;20512;-63
2023/09/21 17:59:29;;;;;;;8.10;3.47;;;;;;;21.00;55.09;96378.75;10542665;28;20377;-63
2023/09/21 18:04:50;;;;;;;6.30;3.03;;;;;;;20.96;54.99;96373.06;10542172;28;20132;-63
2023/09/21 18:10:11;;;;;;;9.95;3.53;;;;;;;20.91;55.13;96375.16;10542197;28;20152;-63
2023/09/21 18:15:32;;;;;;;11.90;3.45;;;;;;;20.85;55.59;96383.66;10542296;28;20169;-63
2023/09/21 18:20:52;;;;;;;7.85;3.22;;;;;;;20.81;55.49;96372.28;10541845;28;20173;-63
2023/09/21 18:26:14;;;;;;;6.80;3.08;;;;;;;20.76;55.80;96368.72;10540658;28;20047;-63
2023/09/21 18:31:38;;;;;;;7.82;3.50;;;;;;;20.72;56.30;96365.84;10541393;28;20068;-63
2023/09/21 18:36:59;;;;;;;6.20;3.20;;;;;;;20.68;56.65;96365.81;10540337;28;20123;-63
2023/09/21 18:42:20;;;;;;;11.63;4.00;;;;;;;20.60;56.67;96359.38;10540831;28;20170;-63
2023/09/21 18:47:40;;;;;;;7.53;4.00;;;;;;;20.49;56.34;96347.28;10539830;28;20055;-63
2023/09/21 18:53:02;;;;;;;9.73;3.70;;;;;;;20.42;57.54;96345.78;10540500;28;20410;-63
2023/09/21 18:58:23;;;;;;;9.75;3.40;;;;;;;20.39;57.54;96335.84;10540068;28;20123;-63
2023/09/21 19:03:44;;;;;;;6.63;3.28;;;;;;;20.42;57.92;96325.94;10540269;28;20463;-63
2023/09/21 19:09:05;;;;;;;7.03;3.13;;;;;;;20.42;57.79;96325.94;10538835;28;20075;-63
2023/09/21 19:14:27;;;;;;;8.80;4.10;;;;;;;20.39;57.80;96324.50;10539779;28;20043;-63
2023/09/21 19:19:47;;;;;;;6.80;3.90;;;;;;;20.32;58.48;96320.91;10539527;28;20040;-63
2023/09/21 19:25:09;;;;;;;9.70;4.20;;;;;;;20.22;58.45;96306.69;10539723;28;20112;-63
2023/09/21 19:30:31;;;;;;;7.30;3.45;;;;;;;20.14;58.45;96303.78;10538669;28;20043;-63
2023/09/21 19:35:54;;;;;;;6.63;3.22;;;;;;;20.06;58.67;96301.59;10539125;28;20079;-63
2023/09/21 19:41:15;;;;;;;5.78;3.55;;;;;;;20.03;58.86;96303.00;10539283;28;20132;-63
2023/09/21 19:46:38;;;;;;;8.95;3.30;;;;;;;20.06;59.49;96300.91;10538897;28;20063;-63
2023/09/21 19:51:59;;;;;;;7.07;3.33;;;;;;;20.12;59.62;96300.94;10539018;28;20166;-63
2023/09/21 19:57:20;;;;;;;9.23;3.42;;;;;;;20.09;59.37;96297.41;10538804;28;20071;-63
2023/09/21 20:02:41;;;;;;;8.63;3.20;;;;;;;20.10;60.09;96290.31;10538783;28;20490;-63
2023/09/21 20:08:04;;;;;;;7.13;3.10;;;;;;;20.14;60.07;96293.16;10538551;28;20061;-63
2023/09/21 20:13:26;;;;;;;9.65;3.38;;;;;;;20.12;60.07;96281.13;10538618;28;20067;-63
2023/09/21 20:18:46;;;;;;;7.07;3.25;;;;;;;20.10;60.02;96284.66;10538602;28;20074;-63
2023/09/21 20:24:07;;;;;;;8.90;3.50;;;;;;;20.07;60.19;96277.53;10538491;28;20537;-63
2023/09/21 20:29:31;;;;;;;7.20;3.10;;;;;;;19.97;60.35;96274.63;10538267;28;20040;-63
2023/09/21 20:34:52;;;;;;;9.88;3.58;;;;;;;19.87;60.84;96268.88;10538313;28;20078;-63
2023/09/21 20:40:13;;;;;;;9.68;2.90;;;;;;;19.83;61.09;96275.25;10537939;28;20059;-63
2023/09/21 20:45:34;;;;;;;7.32;3.08;;;;;;;19.85;60.80;96283.75;10545930;28;20043;-63
2023/09/21 20:50:54;;;;;;;4.90;2.95;;;;;;;19.76;61.28;96273.06;10545237;28;20529;-63
2023/09/21 20:56:15;;;;;;;6.72;3.13;;;;;;;19.58;61.70;96265.81;10545473;28;20070;-63
2023/09/21 21:01:37;;;;;;;9.10;3.45;;;;;;;19.43;61.79;96253.66;10544939;28;20083;-63
2023/09/21 21:06:59;;;;;;;8.55;3.65;;;;;;;19.36;61.86;96262.78;10544666;28;20409;-63
2023/09/21 21:12:20;;;;;;;7.22;3.28;;;;;;;19.32;62.16;96260.63;10544202;28;20044;-63
2023/09/21 21:17:41;;;;;;;5.82;3.28;;;;;;;19.29;62.41;96247.84;10544267;28;20048;-63
2023/09/21 21:23:03;;;;;;;11.43;3.53;;;;;;;19.24;62.91;96248.50;10543064;28;20131;-63
2023/09/21 21:28:24;;;;;;;10.00;3.67;;;;;;;19.07;62.79;96259.66;10542804;28;20467;-63
2023/09/21 21:33:45;;;;;;;6.57;3.45;;;;;;;18.90;63.08;96263.69;10543644;28;20106;-63
2023/09/21 21:39:06;;;;;;;8.55;3.58;;;;;;;18.82;63.56;96250.19;10543399;28;20163;-63
2023/09/21 21:44:27;;;;;;;7.50;2.92;;;;;;;18.80;63.58;96252.97;10543302;28;20485;-63
2023/09/21 21:49:47;;;;;;;5.57;3.53;;;;;;;18.73;63.80;96250.78;10542999;28;20068;-63
2023/09/21 21:55:08;;;;;;;7.00;3.42;;;;;;;18.60;63.74;96244.94;10542581;28;20115;-63
2023/09/21 22:00:31;;;;;;;5.20;2.97;;;;;;;18.62;64.22;96232.94;10542769;28;20173;-63
2023/09/21 22:05:52;;;;;;;9.77;4.03;;;;;;;18.67;64.55;96230.94;10542302;28;20044;-63
2023/09/21 22:11:13;;;;;;;8.60;3.53;;;;;;;18.68;64.73;96233.06;10542289;28;20123;-63
2023/09/21 22:16:33;;;;;;;10.07;3.58;;;;;;;18.71;64.50;96233.78;10541778;28;20076;-63
2023/09/21 22:21:55;;;;;;;9.18;3.55;;;;;;;18.71;64.62;96236.63;10541764;28;20123;-63
2023/09/21 22:27:16;;;;;;;5.22;3.78;;;;;;;18.71;65.23;96236.63;10541272;28;20136;-63
2023/09/21 22:32:37;;;;;;;12.18;4.22;;;;;;;18.67;65.34;96228.09;10541256;28;20123;-63
2023/09/21 22:37:58;;;;;;;8.65;4.20;;;;;;;18.59;65.44;96223.03;10539959;28;20044;-63
2023/09/21 22:43:35;;;;;;;9.55;4.15;;;;;;;18.51;65.64;96220.09;10539954;28;20101;-63
2023/09/21 22:48:59;;;;;;;;;;;;;;;18.47;66.53;96215.13;10541214;28;20517;-63
2023/09/21 22:54:20;;;;;;;14.55;3.95;;;;;;;18.44;66.07;96239.09;10540935;28;19966;-63
2023/09/21 22:59:43;;;;;;;6.80;3.20;;;;;;;18.34;66.04;96250.28;10540384;28;20127;-63
2023/09/21 23:05:05;;;;;;;4.53;2.53;;;;;;;18.31;66.21;96240.34;10539760;28;20046;-63
2023/09/21 23:10:26;;;;;;;6.22;2.38;;;;;;;18.29;66.66;96251.59;10539933;28;20068;-63
2023/09/21 23:15:47;;;;;;;7.47;2.60;;;;;;;18.25;66.19;96257.22;10539917;28;20120;-63
2023/09/21 23:21:08;;;;;;;5.47;2.35;;;;;;;18.18;66.67;96258.53;10539490;28;20159;-63
2023/09/21 23:26:33;;;;;;;5.88;2.22;;;;;;;18.15;66.28;96259.88;10538347;28;20071;-63
2023/09/21 23:31:55;;;;;;;8.52;2.17;;;;;;;18.09;66.74;96252.03;10539254;28;20050;-63
2023/09/21 23:37:16;;;;;;;3.22;2.10;;;;;;;18.07;66.78;96254.84;10539326;28;20513;-63
2023/09/21 23:42:38;;;;;;;3.70;1.98;;;;;;;17.98;67.02;96256.81;10539277;28;20075;-63
2023/09/21 23:47:59;;;;;;;5.75;2.20;;;;;;;18.01;67.51;96246.28;10524073;28;20459;-63
2023/09/21 23:53:21;;;;;;;6.43;2.45;;;;;;;18.03;67.02;96247.00;10538185;28;20506;-63
2023/09/21 23:58:41;;;;;;;5.82;2.42;;;;;;;17.91;67.65;96248.94;10538890;28;20051;-63
